createdAt,value
2022-10-19T00:04:46.547Z,45.42
2022-10-19T00:09:53.778Z,45.44
2022-10-19T00:15:00.988Z,45.40
2022-10-19T00:20:08.286Z,45.34
2022-10-19T00:25:15.436Z,45.22
2022-10-19T00:30:22.635Z,45.17
2022-10-19T00:35:29.886Z,45.12
2022-10-19T00:40:37.079Z,45.03
2022-10-19T00:45:44.346Z,45.00
2022-10-19T00:50:51.596Z,44.91
2022-10-19T00:55:58.763Z,44.82
2022-10-19T01:01:06.022Z,44.81
2022-10-19T01:06:13.178Z,44.75
2022-10-19T01:11:20.369Z,44.71
2022-10-19T01:16:27.642Z,44.76
2022-10-19T01:21:34.867Z,44.75
2022-10-19T01:26:42.077Z,44.69
2022-10-19T01:31:49.285Z,44.62
2022-10-19T01:36:56.551Z,44.56
2022-10-19T01:42:03.693Z,44.45
2022-10-19T01:47:11.804Z,44.38
2022-10-19T01:52:19.062Z,44.33
2022-10-19T01:57:26.229Z,44.32
2022-10-19T02:02:33.694Z,44.32
2022-10-19T02:07:40.768Z,44.25
2022-10-19T02:12:48.821Z,44.15
2022-10-19T02:17:56.067Z,44.18
2022-10-19T02:23:03.312Z,44.28
2022-10-19T02:28:10.486Z,44.26
2022-10-19T02:33:17.747Z,44.18
2022-10-19T02:38:24.966Z,44.08
2022-10-19T02:43:32.099Z,43.96
2022-10-19T02:48:40.258Z,43.89
2022-10-19T02:53:47.502Z,43.83
2022-10-19T02:58:54.719Z,43.75
2022-10-19T03:04:01.956Z,43.66
2022-10-19T03:09:09.552Z,43.64
2022-10-19T03:14:16.774Z,43.61
2022-10-19T03:19:23.984Z,43.56
2022-10-19T03:24:31.229Z,43.54
2022-10-19T03:29:38.448Z,43.65
2022-10-19T03:34:45.717Z,43.52
2022-10-19T03:39:53.026Z,43.49
2022-10-19T03:45:00.233Z,43.38
2022-10-19T03:50:07.542Z,43.39
2022-10-19T03:55:16.895Z,43.32
2022-10-19T04:00:24.073Z,43.19
2022-10-19T04:05:35.898Z,43.09
2022-10-19T04:10:43.148Z,43.05
2022-10-19T04:15:50.329Z,42.91
2022-10-19T04:20:57.585Z,42.87
2022-10-19T04:26:04.796Z,42.96
2022-10-19T04:31:11.987Z,42.92
2022-10-19T04:36:19.136Z,42.86
2022-10-19T04:41:26.422Z,42.82
2022-10-19T04:46:33.612Z,42.78
2022-10-19T04:51:40.818Z,42.71
2022-10-19T04:56:48.005Z,42.56
2022-10-19T05:01:55.132Z,42.47
2022-10-19T05:07:02.323Z,42.50
2022-10-19T05:12:09.518Z,42.60
2022-10-19T05:17:16.846Z,42.49
2022-10-19T05:22:24.035Z,42.43
2022-10-19T05:27:31.446Z,42.35
2022-10-19T05:32:38.404Z,42.29
2022-10-19T05:37:45.649Z,42.24
2022-10-19T05:42:52.903Z,42.11
2022-10-19T05:48:00.055Z,42.04
2022-10-19T05:53:07.254Z,41.99
2022-10-19T05:58:14.568Z,41.96
2022-10-19T06:03:21.675Z,41.99
2022-10-19T06:08:28.928Z,41.89
2022-10-19T06:13:36.112Z,41.88
2022-10-19T06:18:43.350Z,41.86
2022-10-19T06:23:50.572Z,41.79
2022-10-19T06:28:57.787Z,41.61
2022-10-19T06:34:05.161Z,41.72
2022-10-19T06:39:12.238Z,41.71
2022-10-19T06:44:19.681Z,41.70
2022-10-19T06:49:26.874Z,41.62
2022-10-19T06:54:34.110Z,41.63
2022-10-19T06:59:41.349Z,41.57
2022-10-19T07:04:48.631Z,41.55
2022-10-19T07:09:55.887Z,41.54
2022-10-19T07:15:03.145Z,41.57
2022-10-19T07:20:10.327Z,41.55
2022-10-19T07:25:17.525Z,41.58
2022-10-19T07:30:24.819Z,41.62
2022-10-19T07:35:32.001Z,41.66
2022-10-19T07:40:42.415Z,41.76
2022-10-19T07:45:46.403Z,41.93
2022-10-19T07:50:53.585Z,42.25
2022-10-19T07:56:00.820Z,42.16
2022-10-19T08:01:08.035Z,42.27
2022-10-19T08:06:15.317Z,42.21
2022-10-19T08:11:22.514Z,42.24
2022-10-19T08:16:29.775Z,42.27
2022-10-19T08:21:36.992Z,42.11
2022-10-19T08:26:44.221Z,42.22
2022-10-19T08:31:51.476Z,42.30
2022-10-19T08:36:58.693Z,42.26
2022-10-19T08:42:05.841Z,42.34
2022-10-19T08:47:14.065Z,42.25
2022-10-19T08:52:20.165Z,42.29
2022-10-19T08:57:27.335Z,42.39
2022-10-19T09:02:34.887Z,42.28
2022-10-19T09:07:41.664Z,42.51
2022-10-19T09:12:48.918Z,42.53
2022-10-19T09:17:56.151Z,42.47
2022-10-19T09:23:03.375Z,42.47
2022-10-19T09:28:10.593Z,42.53
2022-10-19T09:33:17.785Z,42.63
2022-10-19T09:38:24.992Z,42.63
2022-10-19T09:43:32.199Z,42.80
2022-10-19T09:48:39.428Z,42.87
2022-10-19T09:53:46.606Z,42.92
2022-10-19T09:58:53.814Z,43.25
2022-10-19T10:04:01.169Z,43.02
2022-10-19T10:09:08.305Z,43.04
2022-10-19T10:14:15.464Z,43.13
2022-10-19T10:19:26.533Z,43.11
2022-10-19T10:24:29.881Z,43.17
2022-10-19T10:29:37.037Z,43.11
2022-10-19T10:34:54.908Z,43.39
2022-10-19T10:39:51.447Z,43.51
2022-10-19T10:44:58.602Z,43.44
2022-10-19T10:50:05.810Z,43.66
2022-10-19T10:55:14.613Z,43.59
2022-10-19T11:00:21.935Z,43.54
2022-10-19T11:05:29.142Z,43.55
2022-10-19T11:10:36.289Z,43.71
2022-10-19T11:15:43.526Z,44.48
2022-10-19T11:20:50.755Z,43.89
2022-10-19T11:25:57.954Z,44.79
2022-10-19T11:31:05.134Z,43.94
2022-10-19T11:36:12.455Z,44.98
2022-10-19T11:41:22.027Z,45.20
2022-10-19T11:46:29.254Z,44.92
2022-10-19T11:51:36.547Z,44.97
2022-10-19T11:57:02.453Z,46.09
2022-10-19T12:01:50.996Z,45.92
2022-10-19T12:06:58.149Z,44.90
2022-10-19T12:12:05.299Z,45.77
2022-10-19T12:22:21.496Z,44.97
2022-10-19T12:27:28.692Z,45.48
2022-10-19T12:32:35.853Z,45.40
2022-10-19T12:37:43.112Z,45.45
2022-10-19T12:42:50.263Z,46.22
2022-10-19T12:47:57.484Z,45.62
2022-10-19T12:53:04.742Z,45.73
2022-10-19T12:58:11.909Z,45.80
2022-10-19T13:03:19.166Z,45.92
2022-10-19T13:08:26.510Z,45.96
2022-10-19T13:13:33.630Z,46.04
2022-10-19T13:18:40.844Z,46.18
2022-10-19T13:23:48.053Z,45.98
2022-10-19T13:28:55.285Z,46.16
2022-10-19T13:34:02.477Z,46.42
2022-10-19T13:39:09.688Z,46.54
2022-10-19T13:44:17.478Z,46.28
2022-10-19T13:49:27.777Z,46.39
2022-10-19T13:54:32.238Z,46.04
2022-10-19T13:59:39.404Z,46.27
2022-10-19T14:04:46.662Z,46.45
2022-10-19T14:09:53.854Z,46.49
2022-10-19T14:15:01.343Z,46.44
2022-10-19T14:20:08.631Z,46.20
2022-10-19T14:25:15.874Z,46.12
2022-10-19T14:30:23.047Z,46.24
2022-10-19T14:35:31.263Z,46.09
2022-10-19T14:40:38.520Z,46.20
2022-10-19T14:45:45.681Z,46.17
2022-10-19T14:50:53.801Z,46.20
2022-10-19T14:56:01.035Z,46.06
2022-10-19T15:01:08.369Z,45.99
2022-10-19T15:06:15.648Z,45.97
2022-10-19T15:11:22.856Z,45.96
2022-10-19T15:16:30.053Z,45.98
2022-10-19T15:21:37.224Z,46.02
2022-10-19T15:26:44.483Z,45.92
2022-10-19T15:31:51.665Z,45.96
2022-10-19T15:36:58.882Z,45.89
2022-10-19T15:42:06.103Z,46.09
2022-10-19T15:47:13.282Z,45.98
2022-10-19T15:52:20.493Z,46.00
2022-10-19T15:57:27.789Z,45.92
2022-10-19T16:02:35.275Z,45.96
2022-10-19T16:07:42.994Z,45.99
2022-10-19T16:12:50.362Z,46.19
2022-10-19T16:17:57.555Z,46.02
2022-10-19T16:23:05.178Z,46.16
2022-10-19T16:28:12.619Z,46.32
2022-10-19T16:33:20.146Z,46.47
2022-10-19T16:38:27.756Z,46.55
2022-10-19T16:43:35.154Z,46.72
2022-10-19T16:48:42.578Z,46.87
2022-10-19T16:53:49.884Z,46.87
2022-10-19T16:58:57.420Z,46.85
2022-10-19T17:04:04.729Z,46.91
2022-10-19T17:14:19.339Z,46.98
2022-10-19T17:19:26.936Z,46.96
2022-10-19T17:24:34.548Z,47.28
2022-10-19T17:29:42.183Z,47.51
2022-10-19T17:34:49.450Z,47.53
2022-10-19T17:39:56.982Z,48.38
2022-10-19T17:45:04.315Z,47.37
2022-10-19T17:50:11.795Z,47.26
2022-10-19T17:55:19.340Z,47.48
2022-10-19T18:00:26.740Z,47.53
2022-10-19T18:05:34.416Z,47.59
2022-10-19T18:10:41.947Z,47.39
2022-10-19T18:15:49.337Z,47.36
2022-10-19T18:20:57.373Z,47.15
2022-10-19T18:26:04.798Z,47.62
2022-10-19T18:31:12.532Z,47.31
2022-10-19T18:36:20.128Z,47.37
2022-10-19T18:41:27.840Z,47.26
2022-10-19T18:46:35.474Z,47.33
2022-10-19T18:51:42.870Z,47.34
2022-10-19T18:56:50.395Z,47.28
2022-10-19T19:01:58.041Z,47.11
2022-10-19T19:07:05.604Z,47.05
2022-10-19T19:12:13.217Z,47.06
2022-10-19T19:17:20.955Z,47.09
2022-10-19T19:22:28.648Z,47.19
2022-10-19T19:27:36.367Z,47.04
2022-10-19T19:32:44.017Z,47.00
2022-10-19T19:37:51.709Z,47.06
2022-10-19T19:42:59.311Z,47.03
2022-10-19T19:48:06.951Z,46.98
2022-10-19T19:53:14.294Z,47.02
2022-10-19T19:58:21.849Z,47.63
2022-10-19T20:03:29.589Z,47.10
2022-10-19T20:08:37.367Z,47.28
2022-10-19T20:13:45.003Z,47.67
2022-10-19T20:18:52.661Z,47.70
2022-10-19T20:24:00.164Z,47.59
2022-10-19T20:29:07.748Z,47.47
2022-10-19T20:34:15.090Z,47.29
2022-10-19T20:39:22.239Z,47.18
2022-10-19T20:44:29.415Z,46.84
2022-10-19T20:49:36.617Z,46.80
2022-10-19T20:54:43.788Z,46.93
2022-10-19T20:59:51.074Z,46.95
2022-10-19T21:04:58.321Z,46.92
2022-10-19T21:10:05.534Z,47.04
2022-10-19T21:15:12.793Z,46.79
2022-10-19T21:20:20.019Z,46.50
2022-10-19T21:25:29.007Z,46.43
2022-10-19T21:30:36.220Z,46.17
2022-10-19T21:35:43.543Z,46.19
2022-10-19T21:40:50.713Z,46.11
2022-10-19T21:45:57.957Z,46.04
2022-10-19T21:51:05.223Z,45.95
2022-10-19T21:56:12.401Z,46.39
2022-10-19T22:01:19.761Z,45.92
2022-10-19T22:06:26.922Z,45.73
2022-10-19T22:11:34.089Z,45.72
2022-10-19T22:16:41.367Z,45.74
2022-10-19T22:21:48.597Z,45.77
2022-10-19T22:26:55.829Z,45.48
2022-10-19T22:32:03.032Z,45.29
2022-10-19T22:37:10.300Z,45.17
2022-10-19T22:42:17.436Z,45.32
2022-10-19T22:47:24.642Z,45.10
2022-10-19T22:52:31.883Z,45.05
2022-10-19T22:57:39.042Z,44.89
2022-10-19T23:02:46.263Z,44.90
2022-10-19T23:07:53.548Z,44.71
2022-10-19T23:13:00.747Z,44.79
2022-10-19T23:18:07.968Z,44.55
2022-10-19T23:23:15.259Z,44.58
2022-10-19T23:28:22.413Z,44.79
2022-10-19T23:33:29.607Z,44.89
2022-10-19T23:38:36.802Z,44.82
2022-10-19T23:43:43.983Z,44.88
2022-10-19T23:48:51.189Z,44.80
2022-10-19T23:53:58.407Z,44.78
2022-10-19T23:59:05.590Z,44.74
